Houtzdale, Pennsylvania
Current Conditions -  °F | °C
As of 6:54 AM on Saturday 20 Dec 2014 (Local Time) from KFIG Reporting Station
Overcast Overcast  
Wind Chill: 16°   Ceiling: 1400
Heat Index: 24°   Visibility: 10mi
Dew Point: 18°   Wind: 7mph
Humidity: 77%   Direction: 320°NW
Pressure: 30.23"   Gusts: NA
Location:  40.82°N, 78.35°W
Report Text: KFIG 201154Z AUTO 32006KT 10SM OVC014 M04/M08 A3023 RMK AO2 SLP258 T10441078 11039 21044 53004
Loading
Personal Weather Stations






























Interactive Weather Map New forecast layout! Learn more

10-Day Weather Forecast

Advertisements
Track Severe Weather on mobile